createdAt,value
2023-11-19T00:00:53.413Z,5.89
2023-11-19T00:03:56.473Z,5.92
2023-11-19T00:07:04.006Z,5.95
2023-11-19T00:10:08.272Z,6.00
2023-11-19T00:13:11.587Z,6.02
2023-11-19T00:16:13.456Z,6.02
2023-11-19T00:19:15.106Z,6.06
2023-11-19T00:22:16.702Z,6.11
2023-11-19T00:25:19.870Z,6.11
2023-11-19T00:28:21.547Z,6.17
2023-11-19T00:31:23.278Z,6.19
2023-11-19T00:34:24.919Z,6.23
2023-11-19T00:37:26.557Z,6.25
2023-11-19T00:40:28.296Z,6.29
2023-11-19T00:43:31.256Z,6.32
2023-11-19T00:46:33.920Z,6.36
2023-11-19T00:49:36.236Z,6.37
2023-11-19T00:52:38.676Z,6.39
2023-11-19T00:58:46.331Z,6.46
2023-11-19T01:01:52.596Z,6.47
2023-11-19T01:04:54.242Z,6.52
2023-11-19T01:07:56.594Z,6.56
2023-11-19T01:10:58.673Z,6.58
2023-11-19T01:14:00.772Z,6.65
2023-11-19T01:17:03.289Z,6.68
2023-11-19T01:20:07.514Z,6.73
2023-11-19T01:23:10.009Z,6.77
2023-11-19T01:26:11.910Z,6.79
2023-11-19T01:29:17.546Z,6.86
2023-11-19T01:32:20.236Z,6.85
2023-11-19T01:35:26.106Z,6.95
2023-11-19T01:38:29.817Z,6.96
2023-11-19T01:41:37.112Z,7.05
2023-11-19T01:44:39.529Z,7.08
2023-11-19T01:47:41.967Z,7.12
2023-11-19T01:50:43.661Z,7.17
2023-11-19T01:53:46.023Z,7.20
2023-11-19T01:56:48.150Z,7.23
2023-11-19T01:59:53.649Z,7.28
2023-11-19T02:02:56.121Z,7.32
2023-11-19T02:05:58.965Z,7.35
2023-11-19T02:09:00.625Z,7.40
2023-11-19T02:12:02.923Z,7.43
2023-11-19T02:15:04.910Z,7.46
2023-11-19T02:18:23.661Z,7.50
2023-11-19T02:21:25.655Z,7.54
2023-11-19T02:24:32.213Z,7.55
2023-11-19T02:27:57.028Z,7.55
2023-11-19T02:30:58.996Z,7.62
2023-11-19T02:34:03.485Z,7.65
2023-11-19T02:37:06.060Z,7.65
2023-11-19T02:40:11.003Z,7.66
2023-11-19T02:43:14.485Z,7.71
2023-11-19T02:46:18.592Z,7.72
2023-11-19T02:49:20.681Z,7.74
2023-11-19T02:52:22.513Z,7.74
2023-11-19T02:55:25.143Z,7.74
2023-11-19T02:58:29.225Z,7.78
2023-11-19T03:01:32.301Z,7.78
2023-11-19T03:04:35.033Z,7.80
2023-11-19T03:07:37.791Z,7.81
2023-11-19T03:10:40.054Z,7.83
2023-11-19T03:13:42.360Z,7.83
2023-11-19T03:16:47.664Z,7.85
2023-11-19T03:19:50.540Z,7.84
2023-11-19T03:22:53.918Z,7.88
2023-11-19T03:25:55.554Z,7.91
2023-11-19T03:28:58.394Z,7.90
2023-11-19T03:32:01.073Z,7.94
2023-11-19T03:35:05.423Z,7.96
2023-11-19T03:38:07.031Z,7.97
2023-11-19T03:41:13.691Z,8.00
2023-11-19T03:44:17.753Z,8.02
2023-11-19T03:47:20.133Z,8.04
2023-11-19T03:50:22.288Z,8.07
2023-11-19T03:53:25.470Z,8.07
2023-11-19T03:56:28.386Z,8.07
2023-11-19T03:59:30.421Z,8.13
2023-11-19T04:02:32.548Z,8.14
2023-11-19T04:05:34.622Z,8.17
2023-11-19T04:08:36.923Z,8.18
2023-11-19T04:11:38.572Z,8.20
2023-11-19T04:14:41.686Z,8.23
2023-11-19T04:17:43.446Z,8.26
2023-11-19T04:20:45.502Z,8.28
2023-11-19T04:23:47.145Z,8.30
2023-11-19T04:26:49.984Z,8.30
2023-11-19T04:29:52.014Z,8.33
2023-11-19T04:32:53.642Z,8.35
2023-11-19T04:35:55.233Z,8.35
2023-11-19T04:38:56.853Z,8.37
2023-11-19T04:41:58.861Z,8.37
2023-11-19T04:45:01.630Z,8.41
2023-11-19T04:48:03.268Z,8.41
2023-11-19T04:51:07.862Z,8.44
2023-11-19T04:54:11.364Z,8.44
2023-11-19T04:57:13.410Z,8.45
2023-11-19T05:00:17.281Z,8.44
2023-11-19T05:03:20.361Z,8.47
2023-11-19T05:06:22.504Z,8.48
2023-11-19T05:09:24.545Z,8.50
2023-11-19T05:12:26.185Z,8.52
2023-11-19T05:15:27.792Z,8.53
2023-11-19T05:18:29.854Z,8.55
2023-11-19T05:21:31.903Z,8.54
2023-11-19T05:24:33.567Z,8.54
2023-11-19T05:27:35.371Z,8.53
2023-11-19T05:30:37.003Z,8.58
2023-11-19T05:33:39.176Z,8.60
2023-11-19T05:36:41.041Z,8.59
2023-11-19T05:39:43.088Z,8.60
2023-11-19T05:42:44.782Z,8.59
2023-11-19T05:45:46.345Z,8.61
2023-11-19T05:48:49.328Z,8.61
2023-11-19T05:51:52.416Z,8.64
2023-11-19T05:54:54.014Z,8.64
2023-11-19T05:57:58.325Z,8.66
2023-11-19T06:01:03.586Z,8.68
2023-11-19T06:04:05.909Z,8.68
2023-11-19T06:07:07.589Z,8.71
2023-11-19T06:10:11.279Z,8.71
2023-11-19T06:13:16.661Z,8.73
2023-11-19T06:16:18.903Z,8.73
2023-11-19T06:19:20.764Z,8.70
2023-11-19T06:22:22.773Z,8.76
2023-11-19T06:25:25.155Z,8.77
2023-11-19T06:28:26.884Z,8.79
2023-11-19T06:31:29.004Z,8.80
2023-11-19T06:34:31.130Z,8.82
2023-11-19T06:37:33.266Z,8.81
2023-11-19T06:40:39.010Z,8.82
2023-11-19T06:43:42.869Z,8.87
2023-11-19T06:46:45.342Z,8.88
2023-11-19T06:49:46.968Z,8.90
2023-11-19T06:52:48.833Z,8.94
2023-11-19T06:55:50.879Z,8.95
2023-11-19T06:58:53.414Z,8.99
2023-11-19T07:01:55.464Z,9.00
2023-11-19T07:04:58.027Z,9.04
2023-11-19T07:08:00.217Z,9.06
2023-11-19T07:11:02.341Z,9.08
2023-11-19T07:14:04.439Z,9.11
2023-11-19T07:17:07.229Z,9.13
2023-11-19T07:20:09.754Z,9.16
2023-11-19T07:23:11.449Z,9.19
2023-11-19T07:26:13.715Z,9.21
2023-11-19T07:29:28.817Z,9.23
2023-11-19T07:32:31.312Z,9.26
2023-11-19T07:35:33.450Z,9.29
2023-11-19T07:38:35.686Z,9.32
2023-11-19T07:41:37.320Z,9.35
2023-11-19T07:44:41.089Z,9.38
2023-11-19T07:47:45.816Z,9.42
2023-11-19T07:50:47.431Z,9.45
2023-11-19T07:53:50.596Z,9.50
2023-11-19T07:56:52.443Z,9.53
2023-11-19T07:59:54.972Z,9.60
2023-11-19T08:02:56.830Z,9.63
2023-11-19T08:05:59.022Z,9.64
2023-11-19T08:09:01.054Z,9.71
2023-11-19T08:12:02.788Z,9.75
2023-11-19T08:15:05.917Z,9.79
2023-11-19T08:18:08.634Z,9.85
2023-11-19T08:21:10.353Z,9.90
2023-11-19T08:24:11.949Z,9.92
2023-11-19T08:27:13.993Z,9.97
2023-11-19T08:30:15.814Z,10.01
2023-11-19T08:33:18.112Z,10.02
2023-11-19T08:36:20.435Z,10.06
2023-11-19T08:39:22.535Z,10.07
2023-11-19T08:42:24.283Z,10.08
2023-11-19T08:45:26.948Z,10.12
2023-11-19T08:48:28.661Z,10.12
2023-11-19T08:51:30.287Z,10.19
2023-11-19T08:54:32.327Z,10.20
2023-11-19T08:57:34.043Z,10.23
2023-11-19T09:00:35.607Z,10.26
2023-11-19T09:03:38.132Z,10.27
2023-11-19T09:06:41.459Z,10.30
2023-11-19T09:09:43.084Z,10.31
2023-11-19T09:12:44.700Z,10.38
2023-11-19T09:15:46.305Z,10.40
2023-11-19T09:18:47.941Z,10.44
2023-11-19T09:21:51.068Z,10.46
2023-11-19T09:24:52.706Z,10.48
2023-11-19T09:27:54.312Z,10.49
2023-11-19T09:30:56.380Z,10.55
2023-11-19T09:33:58.460Z,10.60
2023-11-19T09:37:00.544Z,10.66
2023-11-19T09:40:02.156Z,10.71
2023-11-19T09:43:05.380Z,10.75
2023-11-19T09:46:11.681Z,10.82
2023-11-19T09:49:14.326Z,10.91
2023-11-19T09:52:16.945Z,10.97
2023-11-19T09:55:18.719Z,11.02
2023-11-19T09:58:20.469Z,11.08
2023-11-19T10:01:26.616Z,11.12
2023-11-19T10:04:33.805Z,11.16
2023-11-19T10:07:35.835Z,11.22
2023-11-19T10:10:38.190Z,11.25
2023-11-19T10:13:41.013Z,11.29
2023-11-19T10:16:43.839Z,11.32
2023-11-19T10:19:45.435Z,11.38
2023-11-19T10:22:47.100Z,11.43
2023-11-19T10:25:54.252Z,11.47
2023-11-19T10:28:56.980Z,11.54
2023-11-19T10:32:23.633Z,11.57
2023-11-19T10:35:21.222Z,11.62
2023-11-19T10:38:24.215Z,11.65
2023-11-19T10:41:34.098Z,11.63
2023-11-19T10:44:37.562Z,11.69
2023-11-19T10:47:41.959Z,11.66
2023-11-19T10:50:46.980Z,11.73
2023-11-19T10:53:51.904Z,11.71
2023-11-19T10:57:02.550Z,11.72
2023-11-19T11:00:11.820Z,11.71
2023-11-19T11:03:20.574Z,11.76
2023-11-19T11:06:23.786Z,11.76
2023-11-19T11:09:28.401Z,11.78
2023-11-19T11:12:36.426Z,11.82
2023-11-19T11:15:38.746Z,11.84
2023-11-19T11:18:40.840Z,11.88
2023-11-19T11:21:46.713Z,11.95
2023-11-19T11:25:03.416Z,12.02
2023-11-19T11:28:15.893Z,12.08
2023-11-19T11:31:35.398Z,12.12
2023-11-19T11:35:02.317Z,12.21
2023-11-19T11:38:10.760Z,12.23
2023-11-19T11:41:26.516Z,12.26
2023-11-19T11:45:06.183Z,12.29
2023-11-19T11:48:21.086Z,12.33
2023-11-19T11:51:46.747Z,12.36
2023-11-19T11:54:48.735Z,12.38
2023-11-19T11:57:51.054Z,12.38
2023-11-19T12:00:53.322Z,12.41
2023-11-19T12:03:57.477Z,12.46
2023-11-19T12:07:13.679Z,12.48
2023-11-19T12:10:17.417Z,12.52
2023-11-19T12:13:23.130Z,12.55
2023-11-19T12:16:25.092Z,12.56
2023-11-19T12:19:28.291Z,12.58
2023-11-19T12:22:30.356Z,12.59
2023-11-19T12:25:35.441Z,12.60
2023-11-19T12:28:37.488Z,12.69
2023-11-19T12:31:39.648Z,12.70
2023-11-19T12:34:41.622Z,12.72
2023-11-19T12:37:48.329Z,12.72
2023-11-19T12:41:06.873Z,12.75
2023-11-19T12:44:13.268Z,12.75
2023-11-19T12:47:16.440Z,12.76
2023-11-19T12:50:20.017Z,12.76
2023-11-19T12:53:23.071Z,12.75
2023-11-19T12:56:25.800Z,12.72
2023-11-19T12:59:28.361Z,12.77
2023-11-19T13:02:51.182Z,12.77
2023-11-19T13:06:02.862Z,12.75
2023-11-19T13:09:04.795Z,12.75
2023-11-19T13:12:24.587Z,12.75
2023-11-19T13:15:27.602Z,12.79
2023-11-19T13:18:44.884Z,12.82
2023-11-19T13:21:48.289Z,12.84
2023-11-19T13:24:50.193Z,12.88
2023-11-19T13:27:51.907Z,12.91
2023-11-19T13:30:55.044Z,12.86
2023-11-19T13:33:57.854Z,12.94
2023-11-19T13:36:59.525Z,12.97
2023-11-19T13:40:02.015Z,12.98
2023-11-19T13:43:03.684Z,13.02
2023-11-19T13:46:06.102Z,13.05
2023-11-19T13:49:08.052Z,13.08
2023-11-19T13:52:10.635Z,13.06
2023-11-19T13:55:12.991Z,13.05
2023-11-19T13:58:15.078Z,13.01
2023-11-19T14:01:17.189Z,12.99
2023-11-19T14:04:18.988Z,12.99
2023-11-19T14:07:20.774Z,12.94
2023-11-19T14:10:22.468Z,12.97
2023-11-19T14:13:24.987Z,12.98
2023-11-19T14:16:30.301Z,12.98
2023-11-19T14:19:31.972Z,12.94
2023-11-19T14:22:33.561Z,12.91
2023-11-19T14:25:35.591Z,12.89
2023-11-19T14:28:55.450Z,12.86
2023-11-19T14:32:00.368Z,12.84
2023-11-19T14:35:02.170Z,12.81
2023-11-19T14:38:06.540Z,12.79
2023-11-19T14:41:08.728Z,12.77
2023-11-19T14:44:10.944Z,12.74
2023-11-19T14:47:12.659Z,12.71
2023-11-19T14:50:14.800Z,12.65
2023-11-19T14:53:16.934Z,12.63
2023-11-19T14:56:19.496Z,12.59
2023-11-19T14:59:21.638Z,12.53
2023-11-19T15:02:23.285Z,12.50
2023-11-19T15:05:24.955Z,12.48
2023-11-19T15:08:26.649Z,12.41
2023-11-19T15:11:28.668Z,12.38
2023-11-19T15:14:31.729Z,12.36
2023-11-19T15:17:33.348Z,12.29
2023-11-19T15:20:35.050Z,12.29
2023-11-19T15:23:38.130Z,12.26
2023-11-19T15:26:39.865Z,12.21
2023-11-19T15:29:43.082Z,12.15
2023-11-19T15:32:44.857Z,12.11
2023-11-19T15:35:47.469Z,12.08
2023-11-19T15:41:54.118Z,12.00
2023-11-19T15:44:55.679Z,11.98
2023-11-19T15:47:57.362Z,11.93
2023-11-19T15:50:59.006Z,11.89
2023-11-19T15:54:01.818Z,11.86
2023-11-19T15:57:03.739Z,11.80
2023-11-19T16:00:06.493Z,11.78
2023-11-19T16:03:08.523Z,11.72
2023-11-19T16:06:11.617Z,11.71
2023-11-19T16:09:16.166Z,11.68
2023-11-19T16:12:17.821Z,11.64
2023-11-19T16:15:36.706Z,11.64
2023-11-19T16:18:39.625Z,11.63
2023-11-19T16:21:41.529Z,11.57
2023-11-19T16:24:43.170Z,11.58
2023-11-19T16:27:45.179Z,11.56
2023-11-19T16:30:46.902Z,11.53
2023-11-19T16:33:48.490Z,11.51
2023-11-19T16:36:50.956Z,11.51
2023-11-19T16:39:52.993Z,11.51
2023-11-19T16:42:55.890Z,11.47
2023-11-19T16:45:58.117Z,11.46
2023-11-19T16:49:00.763Z,11.45
2023-11-19T16:52:05.341Z,11.45
2023-11-19T16:55:12.942Z,11.44
2023-11-19T16:58:14.652Z,11.38
2023-11-19T17:01:16.337Z,11.36
2023-11-19T17:04:18.697Z,11.38
2023-11-19T17:07:20.336Z,11.35
2023-11-19T17:10:22.451Z,11.34
2023-11-19T17:13:24.467Z,11.32
2023-11-19T17:16:26.110Z,11.31
2023-11-19T17:19:27.823Z,11.28
2023-11-19T17:22:30.328Z,11.28
2023-11-19T17:25:32.331Z,11.25
2023-11-19T17:28:36.776Z,11.25
2023-11-19T17:31:38.617Z,11.23
2023-11-19T17:34:40.217Z,11.21
2023-11-19T17:37:42.666Z,11.17
2023-11-19T17:40:44.483Z,11.15
2023-11-19T17:43:46.416Z,11.12
2023-11-19T17:46:48.421Z,11.09
2023-11-19T17:49:50.534Z,11.12
2023-11-19T17:52:52.657Z,11.12
2023-11-19T17:55:55.915Z,11.11
2023-11-19T17:58:58.268Z,11.06
2023-11-19T18:02:03.179Z,11.04
2023-11-19T18:05:06.658Z,11.03
2023-11-19T18:08:11.449Z,10.99
2023-11-19T18:11:14.942Z,10.98
2023-11-19T18:14:16.794Z,10.94
2023-11-19T18:17:19.269Z,10.95
2023-11-19T18:20:21.472Z,10.93
2023-11-19T18:23:23.259Z,10.90
2023-11-19T18:26:44.444Z,10.88
2023-11-19T18:29:49.356Z,10.83
2023-11-19T18:32:51.601Z,10.72
2023-11-19T18:35:53.288Z,10.77
2023-11-19T18:38:55.330Z,10.75
2023-11-19T18:41:57.036Z,10.70
2023-11-19T18:44:59.070Z,10.70
2023-11-19T18:48:01.849Z,10.66
2023-11-19T18:51:04.011Z,10.65
2023-11-19T18:54:05.808Z,10.62
2023-11-19T18:57:07.539Z,10.60
2023-11-19T19:00:11.341Z,10.58
2023-11-19T19:03:16.377Z,10.55
2023-11-19T19:06:18.530Z,10.54
2023-11-19T19:09:20.253Z,10.51
2023-11-19T19:12:22.180Z,10.48
2023-11-19T19:15:26.854Z,10.48
2023-11-19T19:18:28.791Z,10.48
2023-11-19T19:21:32.366Z,10.42
2023-11-19T19:24:35.087Z,10.41
2023-11-19T19:27:37.155Z,10.38
2023-11-19T19:30:39.092Z,10.36
2023-11-19T19:33:40.690Z,10.37
2023-11-19T19:36:42.722Z,10.35
2023-11-19T19:39:44.345Z,10.36
2023-11-19T19:42:45.978Z,10.38
2023-11-19T19:45:47.989Z,10.38
2023-11-19T19:48:51.759Z,10.37
2023-11-19T19:51:53.531Z,10.38
2023-11-19T19:54:57.127Z,10.39
2023-11-19T19:57:59.196Z,10.41
2023-11-19T20:01:02.146Z,10.42
2023-11-19T20:04:04.523Z,10.40
2023-11-19T20:07:07.518Z,10.39
2023-11-19T20:10:13.631Z,10.32
2023-11-19T20:13:16.002Z,10.38
2023-11-19T20:16:18.592Z,10.38
2023-11-19T20:19:20.278Z,10.38
2023-11-19T20:22:21.856Z,10.35
2023-11-19T20:25:23.458Z,10.34
2023-11-19T20:28:25.600Z,10.32
2023-11-19T20:31:27.201Z,10.31
2023-11-19T20:34:29.864Z,10.29
2023-11-19T20:37:32.776Z,10.24
2023-11-19T20:40:34.858Z,10.24
2023-11-19T20:43:36.687Z,10.24
2023-11-19T20:46:38.759Z,10.25
2023-11-19T20:49:40.877Z,10.25
2023-11-19T20:52:42.582Z,10.22
2023-11-19T20:55:46.513Z,10.20
2023-11-19T20:58:48.106Z,10.19
2023-11-19T21:01:49.835Z,10.17
2023-11-19T21:04:51.894Z,10.17
2023-11-19T21:07:54.027Z,10.17
2023-11-19T21:10:56.128Z,10.14
2023-11-19T21:13:57.799Z,10.15
2023-11-19T21:17:00.303Z,10.17
2023-11-19T21:20:02.462Z,10.17
2023-11-19T21:23:04.120Z,10.18
2023-11-19T21:26:06.618Z,10.20
2023-11-19T21:29:08.364Z,10.18
2023-11-19T21:32:10.482Z,10.11
2023-11-19T21:35:13.339Z,10.17
2023-11-19T21:38:15.202Z,10.22
2023-11-19T21:41:16.881Z,10.24
2023-11-19T21:44:18.584Z,10.24
2023-11-19T21:47:20.689Z,10.24
2023-11-19T21:50:22.704Z,10.28
2023-11-19T21:53:25.524Z,10.28
2023-11-19T21:56:27.097Z,10.28
2023-11-19T21:59:28.738Z,10.26
2023-11-19T22:02:30.847Z,10.25
2023-11-19T22:05:32.509Z,10.23
2023-11-19T22:08:34.561Z,10.22
2023-11-19T22:11:36.208Z,10.22
2023-11-19T22:14:38.257Z,10.21
2023-11-19T22:17:40.327Z,10.21
2023-11-19T22:20:42.871Z,10.16
2023-11-19T22:23:44.685Z,10.10
2023-11-19T22:26:46.733Z,10.11
2023-11-19T22:29:48.396Z,10.12
2023-11-19T22:32:50.496Z,10.11
2023-11-19T22:35:52.552Z,10.11
2023-11-19T22:38:55.257Z,10.11
2023-11-19T22:41:57.402Z,10.07
2023-11-19T22:45:00.309Z,10.09
2023-11-19T22:48:02.118Z,10.08
2023-11-19T22:51:05.114Z,10.09
2023-11-19T22:54:06.855Z,10.09
2023-11-19T22:57:09.066Z,10.10
2023-11-19T23:00:19.511Z,10.11
2023-11-19T23:03:22.413Z,10.09
2023-11-19T23:06:24.098Z,10.09
2023-11-19T23:09:26.646Z,10.06
2023-11-19T23:12:28.790Z,10.08
2023-11-19T23:15:31.414Z,10.11
2023-11-19T23:18:33.475Z,10.09
2023-11-19T23:21:40.936Z,10.16
2023-11-19T23:24:43.220Z,10.15
2023-11-19T23:27:44.882Z,10.18
2023-11-19T23:30:46.660Z,10.18
2023-11-19T23:33:48.743Z,10.16
2023-11-19T23:36:50.934Z,10.13
2023-11-19T23:39:53.712Z,10.10
2023-11-19T23:42:55.969Z,10.05
2023-11-19T23:45:58.502Z,10.01
2023-11-19T23:49:01.493Z,9.94
2023-11-19T23:52:05.935Z,9.90
2023-11-19T23:55:08.323Z,9.82
2023-11-19T23:58:10.357Z,9.77
